createdAt,value
2017-07-25T00:02:12.640Z,8.63
2017-07-25T00:04:46.451Z,7.30
2017-07-25T00:07:19.938Z,6.23
2017-07-25T00:09:53.545Z,8.57
2017-07-25T00:12:27.239Z,8.43
2017-07-25T00:15:00.818Z,7.40
2017-07-25T00:17:34.434Z,12.50
2017-07-25T00:20:08.762Z,7.63
2017-07-25T00:22:42.673Z,8.67
2017-07-25T00:25:16.539Z,12.20
2017-07-25T00:27:50.169Z,10.97
2017-07-25T00:30:23.781Z,12.83
2017-07-25T00:32:57.483Z,15.83
2017-07-25T00:35:31.186Z,11.90
2017-07-25T00:38:04.878Z,11.93
2017-07-25T00:40:38.561Z,11.80
2017-07-25T00:43:12.396Z,15.97
2017-07-25T00:45:46.942Z,11.50
2017-07-25T00:48:20.823Z,13.40
2017-07-25T00:50:54.513Z,12.20
2017-07-25T00:53:28.231Z,12.30
2017-07-25T00:56:02.652Z,13.37
2017-07-25T00:58:36.456Z,15.03
2017-07-25T01:01:10.052Z,14.10
2017-07-25T01:03:43.661Z,12.50
2017-07-25T01:06:17.258Z,11.93
2017-07-25T01:08:50.850Z,11.87
2017-07-25T01:11:24.764Z,13.07
2017-07-25T01:13:58.270Z,14.43
2017-07-25T01:16:31.957Z,11.50
2017-07-25T01:19:05.567Z,16.80
2017-07-25T01:21:40.561Z,14.07
2017-07-25T01:24:14.294Z,11.23
2017-07-25T01:26:47.898Z,11.90
2017-07-25T01:29:21.466Z,14.13
2017-07-25T01:31:55.089Z,10.13
2017-07-25T01:34:28.698Z,11.03
2017-07-25T01:37:02.291Z,8.47
2017-07-25T01:39:35.996Z,10.40
2017-07-25T01:42:09.707Z,9.57
2017-07-25T01:44:43.298Z,6.47
2017-07-25T01:47:17.699Z,8.23
2017-07-25T01:49:51.317Z,8.40
2017-07-25T01:52:25.067Z,7.13
2017-07-25T01:54:58.617Z,11.63
2017-07-25T01:57:32.231Z,9.77
2017-07-25T02:00:05.939Z,10.30
2017-07-25T02:02:39.527Z,9.50
2017-07-25T02:05:13.330Z,9.77
2017-07-25T02:07:46.930Z,9.73
2017-07-25T02:10:20.847Z,11.10
2017-07-25T02:12:55.367Z,12.10
2017-07-25T02:15:28.953Z,11.33
2017-07-25T02:18:02.462Z,10.90
2017-07-25T02:20:35.965Z,14.73
2017-07-25T02:23:09.762Z,10.20
2017-07-25T02:25:43.257Z,11.00
2017-07-25T02:28:16.845Z,12.00
2017-07-25T02:30:50.462Z,12.37
2017-07-25T02:33:24.172Z,19.20
2017-07-25T02:35:57.757Z,15.80
2017-07-25T02:38:32.287Z,15.30
2017-07-25T02:41:06.611Z,13.67
2017-07-25T02:43:40.407Z,14.27
2017-07-25T02:46:14.001Z,13.70
2017-07-25T02:48:47.605Z,15.37
2017-07-25T02:51:21.932Z,15.80
2017-07-25T02:53:55.482Z,16.23
2017-07-25T02:56:29.031Z,16.97
2017-07-25T02:59:03.242Z,17.67
2017-07-25T03:01:36.946Z,17.60
2017-07-25T03:04:10.542Z,18.83
2017-07-25T03:06:44.770Z,17.23
2017-07-25T03:09:18.358Z,20.47
2017-07-25T03:11:52.883Z,17.53
2017-07-25T03:14:26.342Z,19.07
2017-07-25T03:16:59.933Z,18.30
2017-07-25T03:19:33.682Z,14.73
2017-07-25T03:22:07.267Z,17.50
2017-07-25T03:24:40.858Z,16.10
2017-07-25T03:27:14.592Z,20.70
2017-07-25T03:29:48.169Z,18.80
2017-07-25T03:32:21.861Z,19.40
2017-07-25T03:34:55.889Z,19.07
2017-07-25T03:37:29.697Z,16.37
2017-07-25T03:40:03.502Z,18.43
2017-07-25T03:42:37.206Z,17.80
2017-07-25T03:45:11.106Z,16.27
2017-07-25T03:47:44.724Z,15.53
2017-07-25T03:50:18.394Z,17.57
2017-07-25T03:52:52.023Z,15.20
2017-07-25T03:55:25.627Z,16.10
2017-07-25T03:57:59.443Z,17.20
2017-07-25T04:00:33.032Z,18.43
2017-07-25T04:03:06.831Z,14.70
2017-07-25T04:05:40.525Z,15.80
2017-07-25T04:08:15.064Z,13.37
2017-07-25T04:10:49.066Z,12.83
2017-07-25T04:13:22.679Z,15.07
2017-07-25T04:15:57.017Z,13.87
2017-07-25T04:18:30.697Z,12.43
2017-07-25T04:21:04.486Z,13.97
2017-07-25T04:23:38.413Z,14.63
2017-07-25T04:26:12.099Z,13.03
2017-07-25T04:28:45.803Z,13.63
2017-07-25T04:31:20.227Z,17.13
2017-07-25T04:33:53.722Z,14.70
2017-07-25T04:36:27.377Z,13.93
2017-07-25T04:39:01.335Z,14.40
2017-07-25T04:41:35.467Z,10.47
2017-07-25T04:44:09.141Z,9.73
2017-07-25T04:46:42.859Z,10.03
2017-07-25T04:49:16.455Z,5.80
2017-07-25T04:51:50.050Z,6.57
2017-07-25T04:54:24.574Z,4.10
2017-07-25T04:56:58.121Z,6.80
2017-07-25T04:59:31.671Z,4.87
2017-07-25T05:02:06.090Z,7.00
2017-07-25T05:04:39.691Z,5.07
2017-07-25T05:07:13.385Z,6.47
2017-07-25T05:09:47.407Z,7.30
2017-07-25T05:12:21.106Z,9.03
2017-07-25T05:14:55.423Z,6.97
2017-07-25T05:17:28.974Z,6.80
2017-07-25T05:20:03.434Z,8.00
2017-07-25T05:22:37.029Z,9.53
2017-07-25T05:25:11.562Z,10.07
2017-07-25T05:27:45.174Z,9.93
2017-07-25T05:30:18.766Z,7.37
2017-07-25T05:32:53.245Z,7.97
2017-07-25T05:35:26.913Z,7.07
2017-07-25T05:38:01.005Z,9.23
2017-07-25T05:40:35.006Z,9.97
2017-07-25T05:43:09.434Z,7.20
2017-07-25T05:45:43.117Z,8.13
2017-07-25T05:48:16.722Z,6.67
2017-07-25T05:50:50.533Z,10.10
2017-07-25T05:53:24.135Z,11.37
2017-07-25T05:55:57.829Z,5.03
2017-07-25T05:58:31.440Z,6.83
2017-07-25T06:01:05.100Z,6.20
2017-07-25T06:03:38.934Z,6.70
2017-07-25T06:06:13.384Z,5.77
2017-07-25T06:08:47.071Z,14.73
2017-07-25T06:11:21.571Z,5.53
2017-07-25T06:13:55.725Z,11.30
2017-07-25T06:16:29.382Z,4.87
2017-07-25T06:19:02.987Z,4.80
2017-07-25T06:21:36.561Z,4.80
2017-07-25T06:24:10.213Z,5.50
2017-07-25T06:26:43.805Z,5.20
2017-07-25T06:29:18.098Z,11.17
2017-07-25T06:31:52.758Z,7.63
2017-07-25T06:34:26.457Z,5.87
2017-07-25T06:37:00.766Z,6.13
2017-07-25T06:39:34.347Z,4.37
2017-07-25T06:42:07.971Z,4.17
2017-07-25T06:44:41.707Z,5.47
2017-07-25T06:47:15.379Z,4.23
2017-07-25T06:49:48.830Z,4.13
2017-07-25T06:52:22.581Z,4.50
2017-07-25T06:54:56.283Z,4.63
2017-07-25T06:57:29.983Z,4.20
2017-07-25T07:00:03.571Z,3.73
2017-07-25T07:02:37.695Z,4.20
2017-07-25T07:05:12.276Z,3.80
2017-07-25T07:07:45.775Z,4.47
2017-07-25T07:10:19.358Z,7.50
2017-07-25T07:12:52.924Z,5.10
2017-07-25T07:15:26.725Z,3.73
2017-07-25T07:18:00.413Z,11.33
2017-07-25T07:20:34.415Z,5.00
2017-07-25T07:23:08.134Z,5.40
2017-07-25T07:25:41.743Z,5.67
2017-07-25T07:28:15.234Z,5.37
2017-07-25T07:30:49.043Z,5.83
2017-07-25T07:33:22.650Z,4.40
2017-07-25T07:35:57.106Z,3.50
2017-07-25T07:38:30.864Z,10.67
2017-07-25T07:41:05.524Z,16.80
2017-07-25T07:43:39.091Z,4.50
2017-07-25T07:46:12.743Z,5.00
2017-07-25T07:48:46.902Z,3.50
2017-07-25T07:51:21.282Z,3.13
2017-07-25T07:53:54.890Z,2.97
2017-07-25T07:56:28.447Z,2.40
2017-07-25T07:59:02.170Z,2.40
2017-07-25T08:01:36.439Z,1.70
2017-07-25T08:04:10.966Z,2.70
2017-07-25T08:06:44.415Z,1.73
2017-07-25T08:09:17.949Z,2.17
2017-07-25T08:11:51.983Z,2.00
2017-07-25T08:14:25.776Z,1.30
2017-07-25T08:16:59.214Z,2.50
2017-07-25T08:19:32.879Z,1.70
2017-07-25T08:22:06.706Z,1.30
2017-07-25T08:24:40.378Z,3.37
2017-07-25T08:27:13.965Z,1.63
2017-07-25T08:29:47.538Z,3.30
2017-07-25T08:32:21.227Z,3.10
2017-07-25T08:34:55.777Z,1.67
2017-07-25T08:37:29.483Z,1.27
2017-07-25T08:40:03.725Z,1.67
2017-07-25T08:42:38.011Z,2.03
2017-07-25T08:45:11.611Z,1.10
2017-07-25T08:47:45.195Z,1.30
2017-07-25T08:50:19.868Z,3.77
2017-07-25T08:52:53.562Z,1.73
2017-07-25T08:55:27.165Z,1.60
2017-07-25T08:58:00.892Z,1.20
2017-07-25T09:00:35.387Z,4.03
2017-07-25T09:03:08.991Z,1.30
2017-07-25T09:05:42.595Z,1.53
2017-07-25T09:08:16.285Z,1.23
2017-07-25T09:10:51.626Z,1.13
2017-07-25T09:13:25.225Z,5.13
2017-07-25T09:15:59.044Z,1.37
2017-07-25T09:18:32.743Z,1.03
2017-07-25T09:21:06.555Z,1.67
2017-07-25T09:23:43.876Z,0.80
2017-07-25T09:26:17.560Z,1.20
2017-07-25T09:28:51.129Z,2.00
2017-07-25T09:31:24.729Z,1.47
2017-07-25T09:33:58.235Z,1.37
2017-07-25T09:36:31.943Z,1.47
2017-07-25T09:39:05.493Z,1.10
2017-07-25T09:41:39.348Z,1.50
2017-07-25T09:44:13.055Z,2.30
2017-07-25T09:46:47.269Z,1.40
2017-07-25T09:49:21.314Z,1.63
2017-07-25T09:51:55.093Z,1.50
2017-07-25T09:54:29.074Z,1.70
2017-07-25T09:57:02.682Z,1.93
2017-07-25T09:59:37.209Z,2.17
2017-07-25T10:02:11.613Z,2.00
2017-07-25T10:04:45.330Z,3.07
2017-07-25T10:07:19.246Z,4.17
2017-07-25T10:09:53.528Z,2.20
2017-07-25T10:12:27.258Z,2.03
2017-07-25T10:15:00.718Z,2.10
2017-07-25T10:17:34.414Z,1.70
2017-07-25T10:20:08.122Z,2.07
2017-07-25T10:22:41.889Z,3.03
2017-07-25T10:25:15.426Z,1.80
2017-07-25T10:27:49.069Z,2.23
2017-07-25T10:30:23.477Z,1.50
2017-07-25T10:32:57.054Z,2.30
2017-07-25T10:35:30.995Z,1.93
2017-07-25T10:38:05.959Z,1.60
2017-07-25T10:40:39.622Z,1.97
2017-07-25T10:43:13.344Z,1.73
2017-07-25T10:45:47.671Z,1.40
2017-07-25T10:48:21.228Z,1.77
2017-07-25T10:50:54.846Z,3.47
2017-07-25T10:53:28.446Z,2.27
2017-07-25T10:56:02.678Z,2.33
2017-07-25T10:58:36.958Z,1.50
2017-07-25T11:01:10.684Z,2.00
2017-07-25T11:03:45.094Z,1.63
2017-07-25T11:06:19.370Z,1.87
2017-07-25T11:08:52.982Z,2.33
2017-07-25T11:11:26.713Z,5.37
2017-07-25T11:14:00.318Z,1.97
2017-07-25T11:16:34.737Z,1.20
2017-07-25T11:19:08.274Z,1.80
2017-07-25T11:21:42.262Z,1.60
2017-07-25T11:24:16.043Z,2.60
2017-07-25T11:26:50.427Z,2.47
2017-07-25T11:29:24.086Z,2.03
2017-07-25T11:31:57.677Z,2.70
2017-07-25T11:34:32.091Z,1.30
2017-07-25T11:37:05.802Z,1.83
2017-07-25T11:39:39.287Z,1.90
2017-07-25T11:42:12.795Z,1.10
2017-07-25T11:44:46.388Z,1.57
2017-07-25T11:47:19.918Z,1.53
2017-07-25T11:49:53.709Z,1.90
2017-07-25T11:52:27.381Z,1.40
2017-07-25T11:55:00.953Z,2.30
2017-07-25T11:57:34.578Z,2.27
2017-07-25T12:00:08.099Z,2.07
2017-07-25T12:02:41.799Z,2.70
2017-07-25T12:05:15.494Z,4.90
2017-07-25T12:07:49.105Z,4.00
2017-07-25T12:10:22.707Z,1.80
2017-07-25T12:12:56.199Z,2.40
2017-07-25T12:15:29.700Z,1.60
2017-07-25T12:18:04.594Z,1.87
2017-07-25T12:20:38.529Z,2.60
2017-07-25T12:23:12.256Z,2.87
2017-07-25T12:25:45.843Z,2.47
2017-07-25T12:28:19.443Z,2.67
2017-07-25T12:30:53.143Z,3.50
2017-07-25T12:33:26.742Z,3.97
2017-07-25T12:36:00.356Z,3.77
2017-07-25T12:38:34.141Z,3.47
2017-07-25T12:41:07.746Z,8.40
2017-07-25T12:43:41.545Z,4.60
2017-07-25T12:46:16.066Z,2.50
2017-07-25T12:48:49.959Z,3.30
2017-07-25T12:51:24.403Z,2.30
2017-07-25T12:53:57.999Z,3.10
2017-07-25T12:56:31.807Z,5.23
2017-07-25T12:59:05.407Z,2.07
2017-07-25T13:01:51.092Z,2.23
2017-07-25T13:04:25.465Z,3.13
2017-07-25T13:06:59.613Z,2.20
2017-07-25T13:09:33.350Z,3.13
2017-07-25T13:12:06.918Z,3.73
2017-07-25T13:14:40.621Z,3.00
2017-07-25T13:17:14.853Z,2.70
2017-07-25T13:19:50.011Z,2.90
2017-07-25T13:22:24.589Z,2.73
2017-07-25T13:24:58.312Z,5.33
2017-07-25T13:27:31.899Z,3.20
2017-07-25T13:30:06.347Z,4.93
2017-07-25T13:32:40.772Z,2.63
2017-07-25T13:35:15.157Z,14.07
2017-07-25T13:37:48.872Z,6.20
2017-07-25T13:40:22.366Z,3.03
2017-07-25T13:42:56.886Z,3.50
2017-07-25T13:45:30.740Z,4.47
2017-07-25T13:48:04.418Z,2.80
2017-07-25T13:50:38.099Z,3.27
2017-07-25T13:53:11.678Z,3.40
2017-07-25T13:55:45.201Z,3.30
2017-07-25T13:58:18.882Z,4.03
2017-07-25T14:00:52.451Z,4.47
2017-07-25T14:03:26.598Z,4.83
2017-07-25T14:06:00.307Z,4.50
2017-07-25T14:08:33.914Z,7.60
2017-07-25T14:11:07.466Z,3.40
2017-07-25T14:13:41.826Z,4.37
2017-07-25T14:16:15.535Z,3.73
2017-07-25T14:18:49.126Z,3.57
2017-07-25T14:21:23.451Z,4.10
2017-07-25T14:23:57.167Z,4.53
2017-07-25T14:26:31.461Z,7.33
2017-07-25T14:29:05.832Z,4.30
2017-07-25T14:31:40.355Z,2.93
2017-07-25T14:34:14.005Z,2.80
2017-07-25T14:36:47.704Z,3.07
2017-07-25T14:39:21.324Z,12.93
2017-07-25T14:41:55.018Z,3.70
2017-07-25T14:44:28.829Z,4.17
2017-07-25T14:47:02.528Z,3.70
2017-07-25T14:49:36.125Z,4.17
2017-07-25T14:52:10.187Z,3.33
2017-07-25T14:54:43.863Z,1.90
2017-07-25T14:57:18.226Z,1.40
2017-07-25T14:59:51.953Z,2.10
2017-07-25T15:02:26.381Z,2.40
2017-07-25T15:04:59.985Z,2.00
2017-07-25T15:07:33.541Z,1.57
2017-07-25T15:10:08.422Z,1.50
2017-07-25T15:12:45.739Z,5.33
2017-07-25T15:15:20.730Z,2.40
2017-07-25T15:17:54.528Z,1.70
2017-07-25T15:20:28.055Z,1.40
2017-07-25T15:23:01.636Z,4.07
2017-07-25T15:25:35.235Z,1.50
2017-07-25T15:28:08.839Z,1.87
2017-07-25T15:30:43.091Z,1.97
2017-07-25T15:33:16.845Z,1.37
2017-07-25T15:35:50.430Z,1.57
2017-07-25T15:38:24.269Z,1.30
2017-07-25T15:40:57.903Z,1.37
2017-07-25T15:43:31.658Z,1.20
2017-07-25T15:46:05.258Z,2.10
2017-07-25T15:48:38.994Z,2.23
2017-07-25T15:51:12.771Z,1.67
2017-07-25T15:53:46.370Z,1.10
2017-07-25T15:56:20.505Z,1.10
2017-07-25T15:58:54.917Z,1.40
2017-07-25T16:01:29.426Z,1.00
2017-07-25T16:04:03.028Z,1.17
2017-07-25T16:06:36.632Z,11.57
2017-07-25T16:09:10.232Z,2.60
2017-07-25T16:11:43.837Z,1.10
2017-07-25T16:14:18.092Z,1.10
2017-07-25T16:16:52.472Z,1.43
2017-07-25T16:19:26.187Z,2.23
2017-07-25T16:21:59.711Z,3.90
2017-07-25T16:24:34.794Z,2.30
2017-07-25T16:27:09.229Z,1.53
2017-07-25T16:29:42.824Z,0.83
2017-07-25T16:32:16.421Z,1.17
2017-07-25T16:34:50.114Z,1.10
2017-07-25T16:37:23.683Z,0.90
2017-07-25T16:39:57.214Z,0.80
2017-07-25T16:42:31.534Z,2.53
2017-07-25T16:45:05.901Z,2.20
2017-07-25T16:47:39.659Z,5.07
2017-07-25T16:50:13.363Z,2.50
2017-07-25T16:52:47.043Z,2.27
2017-07-25T16:55:20.558Z,1.87
2017-07-25T16:57:54.162Z,1.00
2017-07-25T17:00:27.761Z,1.13
2017-07-25T17:03:01.463Z,1.03
2017-07-25T17:05:34.967Z,1.20
2017-07-25T17:08:08.705Z,1.10
2017-07-25T17:10:42.273Z,1.00
2017-07-25T17:13:16.694Z,1.20
2017-07-25T17:15:50.392Z,5.73
2017-07-25T17:18:24.598Z,6.90
2017-07-25T17:20:58.411Z,2.63
2017-07-25T17:23:32.822Z,1.00
2017-07-25T17:26:06.537Z,1.10
2017-07-25T17:28:40.235Z,1.70
2017-07-25T17:31:14.507Z,2.40
2017-07-25T17:33:48.026Z,1.93
2017-07-25T17:36:21.621Z,1.17
2017-07-25T17:38:55.434Z,3.53
2017-07-25T17:41:28.951Z,1.33
2017-07-25T17:44:03.399Z,3.73
2017-07-25T17:46:36.974Z,1.10
2017-07-25T17:49:10.670Z,1.20
2017-07-25T17:51:44.369Z,1.43
2017-07-25T17:54:18.799Z,1.00
2017-07-25T17:56:52.355Z,1.20
2017-07-25T17:59:25.998Z,1.10
2017-07-25T18:01:59.594Z,1.20
2017-07-25T18:04:33.296Z,1.47
2017-07-25T18:07:07.010Z,1.40
2017-07-25T18:09:40.502Z,2.10
2017-07-25T18:12:14.978Z,2.13
2017-07-25T18:14:48.619Z,1.43
2017-07-25T18:17:22.933Z,1.90
2017-07-25T18:19:56.667Z,2.23
2017-07-25T18:22:31.021Z,1.77
2017-07-25T18:25:04.622Z,2.70
2017-07-25T18:27:38.310Z,2.13
2017-07-25T18:30:12.073Z,1.63
2017-07-25T18:32:45.665Z,1.37
2017-07-25T18:35:19.169Z,1.13
2017-07-25T18:37:52.836Z,1.50
2017-07-25T18:40:27.983Z,1.13
2017-07-25T18:43:01.602Z,1.30
2017-07-25T18:45:35.195Z,1.23
2017-07-25T18:48:08.919Z,2.00
2017-07-25T18:50:42.502Z,1.40
2017-07-25T18:53:16.086Z,1.67
2017-07-25T18:55:49.619Z,1.47
2017-07-25T18:58:23.286Z,1.53
2017-07-25T19:00:56.917Z,1.20
2017-07-25T19:03:30.604Z,1.30
2017-07-25T19:06:04.363Z,1.23
2017-07-25T19:08:38.124Z,1.40
2017-07-25T19:11:12.541Z,1.40
2017-07-25T19:13:46.854Z,1.10
2017-07-25T19:16:20.431Z,1.50
2017-07-25T19:18:54.010Z,0.93
2017-07-25T19:21:27.663Z,1.20
2017-07-25T19:24:01.430Z,1.00
2017-07-25T19:26:35.079Z,3.57
2017-07-25T19:29:08.667Z,1.00
2017-07-25T19:31:42.216Z,1.00
2017-07-25T19:34:15.854Z,0.83
2017-07-25T19:36:50.810Z,0.83
2017-07-25T19:39:25.114Z,0.80
2017-07-25T19:41:58.810Z,1.43
2017-07-25T19:44:32.454Z,0.80
2017-07-25T19:47:06.122Z,1.20
2017-07-25T19:49:39.722Z,1.27
2017-07-25T19:52:13.318Z,0.80
2017-07-25T19:54:46.801Z,0.70
2017-07-25T19:57:21.342Z,2.30
2017-07-25T19:59:54.942Z,1.20
2017-07-25T20:02:28.597Z,0.80
2017-07-25T20:05:03.064Z,1.03
2017-07-25T20:07:36.659Z,0.80
2017-07-25T20:10:10.160Z,1.83
2017-07-25T20:12:43.763Z,2.33
2017-07-25T20:15:18.053Z,0.90
2017-07-25T20:17:51.673Z,1.20
2017-07-25T20:20:25.375Z,2.00
2017-07-25T20:22:59.193Z,2.23
2017-07-25T20:25:32.994Z,1.17
2017-07-25T20:28:06.687Z,1.13
2017-07-25T20:30:40.191Z,1.00
2017-07-25T20:33:14.706Z,1.00
2017-07-25T20:35:48.309Z,0.80
2017-07-25T20:38:22.018Z,0.70
2017-07-25T20:40:55.730Z,0.80
2017-07-25T20:43:29.322Z,0.83
2017-07-25T20:46:03.002Z,0.80
2017-07-25T20:48:36.680Z,0.80
2017-07-25T20:51:10.435Z,0.80
2017-07-25T20:53:44.126Z,0.70
2017-07-25T20:56:17.635Z,1.10
2017-07-25T20:58:51.267Z,1.43
2017-07-25T21:01:25.031Z,0.80
2017-07-25T21:03:58.627Z,0.70
2017-07-25T21:06:33.304Z,0.80
2017-07-25T21:09:07.159Z,0.90
2017-07-25T21:11:41.046Z,7.13
2017-07-25T21:14:15.698Z,8.17
2017-07-25T21:16:49.506Z,2.10
2017-07-25T21:19:24.027Z,0.90
2017-07-25T21:21:57.938Z,1.33
2017-07-25T21:24:32.046Z,1.40
2017-07-25T21:27:05.647Z,0.90
2017-07-25T21:29:39.403Z,0.80
2017-07-25T21:32:12.942Z,1.97
2017-07-25T21:34:46.446Z,0.97
2017-07-25T21:37:20.255Z,0.80
2017-07-25T21:39:53.751Z,1.57
2017-07-25T21:42:27.349Z,2.70
2017-07-25T21:45:01.162Z,1.20
2017-07-25T21:47:34.850Z,1.10
2017-07-25T21:50:08.458Z,0.80
2017-07-25T21:52:42.268Z,0.80
2017-07-25T21:55:16.005Z,3.23
2017-07-25T21:57:49.662Z,3.93
2017-07-25T22:00:23.370Z,0.90
2017-07-25T22:03:09.046Z,0.70
2017-07-25T22:05:42.750Z,0.70
2017-07-25T22:08:16.250Z,0.70
2017-07-25T22:10:49.951Z,0.80
2017-07-25T22:13:23.653Z,0.77
2017-07-25T22:15:57.977Z,1.00
2017-07-25T22:18:31.578Z,0.80
2017-07-25T22:21:05.326Z,0.90
2017-07-25T22:23:40.575Z,0.80
2017-07-25T22:26:14.221Z,2.23
2017-07-25T22:28:47.933Z,2.00
2017-07-25T22:31:22.334Z,0.90
2017-07-25T22:33:55.837Z,0.80
2017-07-25T22:36:29.661Z,0.80
2017-07-25T22:39:03.356Z,0.77
2017-07-25T22:41:37.071Z,0.80
2017-07-25T22:44:10.754Z,1.33
2017-07-25T22:46:44.358Z,1.63
2017-07-25T22:49:17.987Z,0.87
2017-07-25T22:51:52.470Z,1.00
2017-07-25T22:54:26.035Z,1.40
2017-07-25T22:56:59.573Z,0.80
2017-07-25T22:59:33.875Z,0.90
2017-07-25T23:02:07.495Z,3.73
2017-07-25T23:04:40.986Z,1.00
2017-07-25T23:07:14.466Z,0.80
2017-07-25T23:09:48.054Z,0.83
2017-07-25T23:12:21.804Z,1.10
2017-07-25T23:14:55.603Z,1.63
2017-07-25T23:17:29.303Z,2.53
2017-07-25T23:20:03.011Z,1.10
2017-07-25T23:22:36.698Z,1.83
2017-07-25T23:25:10.310Z,1.10
2017-07-25T23:27:45.347Z,1.27
2017-07-25T23:30:18.940Z,1.00
2017-07-25T23:32:52.538Z,1.23
2017-07-25T23:35:26.149Z,1.20
2017-07-25T23:37:59.847Z,0.80
2017-07-25T23:40:33.357Z,1.30
2017-07-25T23:43:06.942Z,1.00
2017-07-25T23:45:41.254Z,0.90
2017-07-25T23:48:14.963Z,0.93
2017-07-25T23:50:48.554Z,2.93
2017-07-25T23:53:22.135Z,3.33
2017-07-25T23:55:55.970Z,1.07
2017-07-25T23:58:29.561Z,0.80
